Time;durP1;ratioP1;P1;durP2;ratioP2;P2;SDS_P1;SDS_P2;PMS_P1;PMS_P2;Temp;Humidity;BMP_temperature;BMP_pressure;BME280_temperature;BME280_humidity;BME280_pressure;Samples;Min_cycle;Max_cycle;Signal;HPM_P1;HPM_P2
2021/03/08 00:01:08;;;;;;;8.90;7.43;;;;;;;;;;5091605;28;20016;-48
2021/03/08 00:03:34;;;;;;;10.93;8.50;;;;;;;;;;5091168;28;20077;-51
2021/03/08 00:05:59;;;;;;;14.32;12.10;;;;;;;;;;5092318;28;20024;-45
2021/03/08 00:08:24;;;;;;;23.55;13.32;;;;;;;;;;5091306;28;20389;-47
2021/03/08 00:10:49;;;;;;;14.50;12.85;;;;;;;;;;5091682;28;20074;-46
2021/03/08 00:13:15;;;;;;;17.23;13.23;;;;;;;;;;5091352;28;20020;-54
2021/03/08 00:15:40;;;;;;;15.32;12.43;;;;;;;;;;5092006;28;20032;-45
2021/03/08 00:18:06;;;;;;;15.07;13.35;;;;;;;;;;5091469;28;20032;-47
2021/03/08 00:20:31;;;;;;;24.13;10.95;;;;;;;;;;5091250;28;20048;-47
2021/03/08 00:22:57;;;;;;;11.30;8.60;;;;;;;;;;5091663;28;20050;-42
2021/03/08 00:25:24;;;;;;;9.27;6.72;;;;;;;;;;5091765;28;20032;-45
2021/03/08 00:27:50;;;;;;;15.38;6.50;;;;;;;;;;5091035;28;20040;-46
2021/03/08 00:30:15;;;;;;;9.02;7.90;;;;;;;;;;5091454;28;20069;-48
2021/03/08 00:32:41;;;;;;;8.38;7.35;;;;;;;;;;5091850;28;20102;-45
2021/03/08 00:35:07;;;;;;;8.93;6.45;;;;;;;;;;5091672;28;20028;-43
2021/03/08 00:37:33;;;;;;;8.70;6.32;;;;;;;;;;5091799;28;20058;-52
2021/03/08 00:39:58;;;;;;;8.77;6.80;;;;;;;;;;5091747;28;20027;-46
2021/03/08 00:42:24;;;;;;;23.90;14.60;;;;;;;;;;5091357;28;20032;-43
2021/03/08 00:44:49;;;;;;;11.10;9.40;;;;;;;;;;5090576;28;20028;-47
2021/03/08 00:47:15;;;;;;;8.75;6.97;;;;;;;;;;5090898;28;20024;-54
2021/03/08 00:49:40;;;;;;;18.98;12.45;;;;;;;;;;5091053;28;20072;-44
2021/03/08 00:52:05;;;;;;;26.20;13.77;;;;;;;;;;5091260;28;20024;-47
2021/03/08 00:54:31;;;;;;;12.35;8.70;;;;;;;;;;5091185;28;20369;-44
2021/03/08 00:56:56;;;;;;;7.25;6.05;;;;;;;;;;5091245;28;20466;-44
2021/03/08 00:59:21;;;;;;;8.80;7.88;;;;;;;;;;5090719;28;20161;-42
2021/03/08 01:01:47;;;;;;;15.85;8.35;;;;;;;;;;5090725;28;20073;-52
2021/03/08 01:04:12;;;;;;;11.25;6.50;;;;;;;;;;5090936;28;20024;-45
2021/03/08 01:06:37;;;;;;;13.18;8.50;;;;;;;;;;5091271;28;20471;-46
2021/03/08 01:09:05;;;;;;;17.50;11.55;;;;;;;;;;5089486;28;20043;-46
2021/03/08 01:11:30;;;;;;;14.35;10.23;;;;;;;;;;5090716;28;20113;-46
2021/03/08 01:13:55;;;;;;;15.82;10.30;;;;;;;;;;5090854;28;20055;-45
2021/03/08 01:16:21;;;;;;;12.13;8.73;;;;;;;;;;5090368;28;20050;-43
2021/03/08 01:18:46;;;;;;;8.75;7.15;;;;;;;;;;5090782;28;20032;-45
2021/03/08 01:21:11;;;;;;;14.55;7.00;;;;;;;;;;5090368;28;20048;-43
2021/03/08 01:23:37;;;;;;;8.88;6.60;;;;;;;;;;5089710;28;20106;-45
2021/03/08 01:26:02;;;;;;;12.27;8.55;;;;;;;;;;5090277;28;20071;-44
2021/03/08 01:28:27;;;;;;;11.73;7.18;;;;;;;;;;5089415;28;20036;-46
2021/03/08 01:30:53;;;;;;;8.43;7.32;;;;;;;;;;5088629;28;20032;-45
2021/03/08 01:33:18;;;;;;;17.80;9.52;;;;;;;;;;5088526;28;20435;-45
2021/03/08 01:35:43;;;;;;;12.93;8.18;;;;;;;;;;5088910;28;20040;-44
2021/03/08 01:38:09;;;;;;;17.92;10.70;;;;;;;;;;5088605;28;20028;-44
2021/03/08 01:40:37;;;;;;;11.27;8.77;;;;;;;;;;5088327;28;20032;-45
2021/03/08 01:43:03;;;;;;;9.15;7.68;;;;;;;;;;5087843;28;20051;-48
2021/03/08 01:45:29;;;;;;;9.60;8.32;;;;;;;;;;5090329;28;20028;-47
2021/03/08 01:47:54;;;;;;;13.48;9.85;;;;;;;;;;5090345;28;20085;-47
2021/03/08 01:50:36;;;;;;;22.75;9.38;;;;;;;;;;5090399;28;20462;-46
2021/03/08 01:53:02;;;;;;;14.98;10.40;;;;;;;;;;5090210;28;20028;-44
2021/03/08 01:55:28;;;;;;;11.73;9.30;;;;;;;;;;5089844;28;20064;-42
2021/03/08 01:57:53;;;;;;;12.18;9.02;;;;;;;;;;5090171;28;20062;-42
2021/03/08 02:00:19;;;;;;;10.38;9.35;;;;;;;;;;5090392;28;20441;-47
2021/03/08 02:02:45;;;;;;;11.77;8.70;;;;;;;;;;5089452;28;20032;-49
2021/03/08 02:05:16;;;;;;;18.58;7.47;;;;;;;;;;5089169;28;20012;-42
2021/03/08 02:07:41;;;;;;;8.93;6.50;;;;;;;;;;5090119;28;20039;-43
2021/03/08 02:10:10;;;;;;;6.28;5.00;;;;;;;;;;5089972;28;20032;-42
2021/03/08 02:12:42;;;;;;;10.90;9.02;;;;;;;;;;5090043;28;20071;-44
2021/03/08 02:15:07;;;;;;;;;;;;;;;;;;5090570;28;20064;-43
2021/03/08 02:17:52;;;;;;;11.40;9.60;;;;;;;;;;5089804;28;20361;-47
2021/03/08 02:20:18;;;;;;;14.15;12.52;;;;;;;;;;5075008;28;20044;-43
2021/03/08 02:22:46;;;;;;;13.38;10.70;;;;;;;;;;5090258;28;20115;-45
2021/03/08 02:25:33;;;;;;;17.35;10.98;;;;;;;;;;5090091;28;20056;-42
2021/03/08 02:28:13;;;;;;;14.05;12.05;;;;;;;;;;5091416;28;20119;-43
2021/03/08 02:30:46;;;;;;;18.65;10.00;;;;;;;;;;5093996;28;20043;-46
2021/03/08 02:33:14;;;;;;;11.77;9.88;;;;;;;;;;5093553;28;20016;-44
2021/03/08 02:35:42;;;;;;;19.50;9.65;;;;;;;;;;5093013;28;20051;-43
2021/03/08 02:38:14;;;;;;;10.43;8.88;;;;;;;;;;5093827;28;20024;-42
2021/03/08 02:40:48;;;;;;;11.55;10.25;;;;;;;;;;5093666;28;20032;-49
2021/03/08 02:43:22;;;;;;;12.00;9.63;;;;;;;;;;5093279;28;20485;-48
2021/03/08 02:45:49;;;;;;;11.70;10.52;;;;;;;;;;5093182;28;20028;-49
2021/03/08 02:48:15;;;;;;;17.13;9.48;;;;;;;;;;5093394;28;20028;-41
2021/03/08 02:50:40;;;;;;;9.68;8.38;;;;;;;;;;5093521;28;20024;-49
2021/03/08 02:53:07;;;;;;;11.65;7.90;;;;;;;;;;5093260;28;20024;-44
2021/03/08 02:55:49;;;;;;;7.85;6.82;;;;;;;;;;5093414;28;20069;-50
2021/03/08 02:58:14;;;;;;;;;;;;;;;;;;5093564;28;20395;-47
2021/03/08 03:00:40;;;;;;;11.30;7.82;;;;;;;;;;5093294;28;19908;-48
2021/03/08 03:03:07;;;;;;;11.65;8.23;;;;;;;;;;5093094;28;20038;-42
2021/03/08 03:05:33;;;;;;;8.95;8.02;;;;;;;;;;5093382;28;20153;-50
2021/03/08 03:08:00;;;;;;;12.68;8.30;;;;;;;;;;5093248;28;20024;-41
2021/03/08 03:10:28;;;;;;;10.63;7.05;;;;;;;;;;5093443;28;20054;-42
2021/03/08 03:12:54;;;;;;;8.10;7.03;;;;;;;;;;5093480;28;20039;-44
2021/03/08 03:15:20;;;;;;;8.90;7.10;;;;;;;;;;5092962;28;20059;-50
2021/03/08 03:17:46;;;;;;;20.92;8.05;;;;;;;;;;5093231;28;20056;-49
2021/03/08 03:20:13;;;;;;;10.13;8.57;;;;;;;;;;5092994;28;20074;-41
2021/03/08 03:22:39;;;;;;;11.93;10.07;;;;;;;;;;5093126;28;20039;-48
2021/03/08 03:25:05;;;;;;;11.82;9.30;;;;;;;;;;5093063;28;20031;-46
2021/03/08 03:27:30;;;;;;;10.48;8.80;;;;;;;;;;5092924;28;20020;-47
2021/03/08 03:29:56;;;;;;;16.17;9.70;;;;;;;;;;5093156;28;20024;-44
2021/03/08 03:32:22;;;;;;;10.82;9.10;;;;;;;;;;5092840;28;20121;-42
2021/03/08 03:34:48;;;;;;;8.75;7.95;;;;;;;;;;5092431;28;20030;-46
2021/03/08 03:37:18;;;;;;;11.43;7.45;;;;;;;;;;5092751;28;20035;-44
2021/03/08 03:39:44;;;;;;;13.93;11.23;;;;;;;;;;5092564;28;20024;-48
2021/03/08 03:42:09;;;;;;;11.35;7.00;;;;;;;;;;5092531;28;20039;-48
2021/03/08 03:44:34;;;;;;;9.10;8.20;;;;;;;;;;5092413;28;20043;-42
2021/03/08 03:47:01;;;;;;;7.53;6.78;;;;;;;;;;5091949;28;20028;-49
2021/03/08 03:49:26;;;;;;;13.27;8.32;;;;;;;;;;5092516;28;20048;-43
2021/03/08 03:51:51;;;;;;;10.50;8.80;;;;;;;;;;5092464;28;20086;-42
2021/03/08 03:54:16;;;;;;;8.38;7.65;;;;;;;;;;5092250;28;20290;-46
2021/03/08 03:56:52;;;;;;;9.88;7.63;;;;;;;;;;5092510;28;20024;-48
2021/03/08 03:59:17;;;;;;;8.73;7.72;;;;;;;;;;5091930;28;20473;-45
2021/03/08 04:02:12;;;;;;;8.63;7.72;;;;;;;;;;5092189;28;20061;-51
2021/03/08 04:04:44;;;;;;;12.73;8.35;;;;;;;;;;5078486;28;20043;-48
2021/03/08 04:07:10;;;;;;;11.75;8.02;;;;;;;;;;5091811;28;20024;-46
2021/03/08 04:09:36;;;;;;;10.85;8.25;;;;;;;;;;5090665;28;20131;-45
2021/03/08 04:12:04;;;;;;;12.32;8.63;;;;;;;;;;5091024;28;20027;-45
2021/03/08 04:14:32;;;;;;;10.80;9.70;;;;;;;;;;5089879;28;20062;-42
2021/03/08 04:16:58;;;;;;;18.25;11.27;;;;;;;;;;5091982;28;20169;-47
2021/03/08 04:19:33;;;;;;;13.55;9.93;;;;;;;;;;5091758;28;20142;-53
2021/03/08 04:22:03;;;;;;;12.07;9.45;;;;;;;;;;5091806;28;20028;-46
2021/03/08 04:24:30;;;;;;;12.18;8.68;;;;;;;;;;5092239;28;20118;-48
2021/03/08 04:26:56;;;;;;;15.23;9.20;;;;;;;;;;5091941;28;20107;-47
2021/03/08 04:29:21;;;;;;;10.23;8.63;;;;;;;;;;5091237;28;20044;-45
2021/03/08 04:31:47;;;;;;;10.55;8.18;;;;;;;;;;5091707;28;20024;-45
2021/03/08 04:34:13;;;;;;;18.90;10.13;;;;;;;;;;5090621;28;20047;-44
2021/03/08 04:36:39;;;;;;;9.93;8.90;;;;;;;;;;5091543;28;20016;-48
2021/03/08 04:39:05;;;;;;;20.88;12.98;;;;;;;;;;5091207;28;20032;-45
2021/03/08 04:41:30;;;;;;;14.00;9.07;;;;;;;;;;5091526;28;20050;-47
2021/03/08 04:43:56;;;;;;;10.57;9.48;;;;;;;;;;5091236;28;20027;-42
2021/03/08 04:46:22;;;;;;;8.23;7.43;;;;;;;;;;5091005;28;20028;-42
2021/03/08 04:48:48;;;;;;;13.95;9.27;;;;;;;;;;5090883;28;20063;-45
2021/03/08 04:51:14;;;;;;;10.18;8.93;;;;;;;;;;5090236;28;20526;-43
2021/03/08 04:53:40;;;;;;;9.32;7.60;;;;;;;;;;5090480;28;20099;-43
2021/03/08 04:56:06;;;;;;;10.43;7.20;;;;;;;;;;5090021;28;20199;-43
2021/03/08 04:58:31;;;;;;;7.70;6.90;;;;;;;;;;5090904;28;20071;-46
2021/03/08 05:00:56;;;;;;;7.75;6.82;;;;;;;;;;5090887;28;20100;-43
2021/03/08 05:03:22;;;;;;;8.20;7.32;;;;;;;;;;5090888;28;20387;-43
2021/03/08 05:05:48;;;;;;;19.30;7.55;;;;;;;;;;5090714;28;20020;-43
2021/03/08 05:08:14;;;;;;;8.93;5.22;;;;;;;;;;5090213;28;20157;-43
2021/03/08 05:10:40;;;;;;;8.07;5.97;;;;;;;;;;5090485;28;20472;-43
2021/03/08 05:13:07;;;;;;;16.40;8.15;;;;;;;;;;5090236;28;20028;-43
2021/03/08 05:15:33;;;;;;;12.13;6.45;;;;;;;;;;5090510;28;20109;-47
2021/03/08 05:17:59;;;;;;;8.20;6.30;;;;;;;;;;5090099;28;20024;-42
2021/03/08 05:20:25;;;;;;;14.88;7.28;;;;;;;;;;5090288;28;20091;-46
2021/03/08 05:22:51;;;;;;;20.45;7.55;;;;;;;;;;5089462;28;20108;-41
2021/03/08 05:25:18;;;;;;;7.40;6.05;;;;;;;;;;5089250;28;20085;-47
2021/03/08 05:27:44;;;;;;;12.48;7.28;;;;;;;;;;5089806;28;20044;-48
2021/03/08 05:30:13;;;;;;;10.02;8.25;;;;;;;;;;5090297;28;20369;-44
2021/03/08 05:32:45;;;;;;;10.25;7.55;;;;;;;;;;5090541;28;20032;-51
2021/03/08 05:35:11;;;;;;;8.23;7.10;;;;;;;;;;5090595;28;20031;-43
2021/03/08 05:37:38;;;;;;;14.73;7.10;;;;;;;;;;5090543;28;20036;-42
2021/03/08 05:40:05;;;;;;;9.48;7.70;;;;;;;;;;5090561;28;20720;-44
2021/03/08 05:42:33;;;;;;;9.15;7.88;;;;;;;;;;5090157;28;20097;-52
2021/03/08 05:45:00;;;;;;;10.13;8.68;;;;;;;;;;5090021;28;20027;-42
2021/03/08 05:47:39;;;;;;;6.97;6.28;;;;;;;;;;5089985;28;20114;-44
2021/03/08 05:50:23;;;;;;;12.40;8.93;;;;;;;;;;5090905;28;20032;-45
2021/03/08 05:53:13;;;;;;;15.77;14.00;;;;;;;;;;5090295;28;20098;-44
2021/03/08 05:55:57;;;;;;;9.25;8.40;;;;;;;;;;5089071;28;20028;-46
2021/03/08 05:58:38;;;;;;;17.60;15.88;;;;;;;;;;5089181;28;20057;-45
2021/03/08 06:01:06;;;;;;;17.17;15.35;;;;;;;;;;5089836;28;20516;-45
2021/03/08 06:03:34;;;;;;;22.42;14.60;;;;;;;;;;5089405;28;20016;-48
2021/03/08 06:06:38;;;;;;;13.90;12.40;;;;;;;;;;5090140;28;20028;-43
2021/03/08 06:09:22;;;;;;;13.38;10.30;;;;;;;;;;5007264;28;20064;-48
2021/03/08 06:11:53;;;;;;;17.13;10.07;;;;;;;;;;5006663;28;20034;-46
2021/03/08 06:14:20;;;;;;;13.68;10.63;;;;;;;;;;5057238;28;20101;-46
2021/03/08 06:16:45;;;;;;;10.90;7.90;;;;;;;;;;5088865;28;20392;-49
2021/03/08 06:19:11;;;;;;;12.07;9.30;;;;;;;;;;5089475;28;20467;-44
2021/03/08 06:21:37;;;;;;;9.65;8.65;;;;;;;;;;5089636;28;20432;-49
2021/03/08 06:24:04;;;;;;;13.07;10.27;;;;;;;;;;5089486;28;20034;-47
2021/03/08 06:26:30;;;;;;;12.98;11.77;;;;;;;;;;5087923;28;20036;-49
2021/03/08 06:28:55;;;;;;;14.98;9.77;;;;;;;;;;5089241;28;20028;-47
2021/03/08 06:31:21;;;;;;;12.38;10.98;;;;;;;;;;5087771;28;20028;-43
2021/03/08 06:33:46;;;;;;;11.57;10.48;;;;;;;;;;5089566;28;20027;-46
2021/03/08 06:36:12;;;;;;;11.50;9.32;;;;;;;;;;5089084;28;20115;-43
2021/03/08 06:38:38;;;;;;;10.43;7.55;;;;;;;;;;5088709;28;20371;-45
2021/03/08 06:41:06;;;;;;;8.80;7.80;;;;;;;;;;5089108;28;20562;-44
2021/03/08 06:43:31;;;;;;;16.05;8.98;;;;;;;;;;5088965;28;20070;-43
2021/03/08 06:45:56;;;;;;;10.00;8.80;;;;;;;;;;5087362;28;20419;-43
2021/03/08 06:48:22;;;;;;;12.65;9.00;;;;;;;;;;5089334;28;20131;-43
2021/03/08 06:51:03;;;;;;;8.68;6.40;;;;;;;;;;5089098;28;20085;-43
2021/03/08 06:53:31;;;;;;;9.97;6.67;;;;;;;;;;5089427;28;20083;-43
2021/03/08 06:56:15;;;;;;;8.90;7.35;;;;;;;;;;5089669;28;20024;-44
2021/03/08 06:58:41;;;;;;;10.95;9.85;;;;;;;;;;5089563;28;20124;-51
2021/03/08 07:01:26;;;;;;;12.82;9.80;;;;;;;;;;5089225;28;20136;-46
2021/03/08 07:03:51;;;;;;;9.13;8.20;;;;;;;;;;5089237;28;20031;-42
2021/03/08 07:06:17;;;;;;;13.05;11.00;;;;;;;;;;5085530;28;20036;-44
2021/03/08 07:08:45;;;;;;;20.52;11.50;;;;;;;;;;5088270;28;20042;-40
2021/03/08 07:11:18;;;;;;;11.18;9.80;;;;;;;;;;5088582;28;20032;-42
2021/03/08 07:13:43;;;;;;;15.63;11.05;;;;;;;;;;5090337;28;20020;-41
2021/03/08 07:16:09;;;;;;;13.57;12.15;;;;;;;;;;5093034;28;20035;-43
2021/03/08 07:18:34;;;;;;;12.90;11.35;;;;;;;;;;5092547;28;20386;-44
2021/03/08 07:21:12;;;;;;;15.70;11.30;;;;;;;;;;5092930;28;20477;-43
2021/03/08 07:23:37;;;;;;;13.50;10.57;;;;;;;;;;5093185;28;20035;-39
2021/03/08 07:26:09;;;;;;;10.70;8.85;;;;;;;;;;5093601;28;20028;-44
2021/03/08 07:28:34;;;;;;;17.35;11.55;;;;;;;;;;5093060;28;20044;-46
2021/03/08 07:31:00;;;;;;;10.75;9.68;;;;;;;;;;5093188;28;20028;-42
2021/03/08 07:33:25;;;;;;;14.18;11.32;;;;;;;;;;5092665;28;20020;-44
2021/03/08 07:35:52;;;;;;;13.20;11.05;;;;;;;;;;5088016;28;20032;-42
2021/03/08 07:38:28;;;;;;;23.40;11.70;;;;;;;;;;5092889;28;20028;-44
2021/03/08 07:41:09;;;;;;;12.05;10.77;;;;;;;;;;5092950;28;20032;-41
2021/03/08 07:43:34;;;;;;;15.27;11.77;;;;;;;;;;5092151;28;20020;-46
2021/03/08 07:45:59;;;;;;;18.00;13.75;;;;;;;;;;5090923;28;20039;-44
2021/03/08 07:48:25;;;;;;;11.05;9.43;;;;;;;;;;5092039;28;20031;-42
2021/03/08 07:50:51;;;;;;;14.35;12.05;;;;;;;;;;5092350;28;20024;-44
2021/03/08 07:53:27;;;;;;;14.95;13.48;;;;;;;;;;5091611;28;20016;-43
2021/03/08 07:55:53;;;;;;;12.63;10.65;;;;;;;;;;5091943;28;20404;-40
2021/03/08 07:58:19;;;;;;;11.73;10.00;;;;;;;;;;5092202;28;20028;-43
2021/03/08 08:00:45;;;;;;;16.88;10.38;;;;;;;;;;5091205;28;20027;-47
2021/03/08 08:03:10;;;;;;;10.55;9.50;;;;;;;;;;5091739;28;20030;-42
2021/03/08 08:05:36;;;;;;;7.50;6.80;;;;;;;;;;5091983;28;20047;-43
2021/03/08 08:08:01;;;;;;;13.70;8.65;;;;;;;;;;5091650;28;20028;-44
2021/03/08 08:10:27;;;;;;;13.20;10.70;;;;;;;;;;5090797;28;20050;-41
2021/03/08 08:12:55;;;;;;;15.20;9.43;;;;;;;;;;5088638;28;20108;-43
2021/03/08 08:15:23;;;;;;;13.82;11.52;;;;;;;;;;5089111;28;20027;-41
2021/03/08 08:17:50;;;;;;;17.27;13.05;;;;;;;;;;5079566;28;20025;-52
2021/03/08 08:20:16;;;;;;;21.33;13.38;;;;;;;;;;5082847;28;20048;-43
2021/03/08 08:22:44;;;;;;;18.45;13.43;;;;;;;;;;5086935;28;20031;-40
2021/03/08 08:25:11;;;;;;;22.70;12.43;;;;;;;;;;5090308;28;20020;-43
2021/03/08 08:27:37;;;;;;;28.83;16.63;;;;;;;;;;5090231;28;20028;-41
2021/03/08 08:30:03;;;;;;;17.42;13.70;;;;;;;;;;5091287;28;20048;-44
2021/03/08 08:32:46;;;;;;;18.33;11.75;;;;;;;;;;5091279;28;20055;-43
2021/03/08 08:35:16;;;;;;;17.08;10.63;;;;;;;;;;5090954;28;20109;-45
2021/03/08 08:37:41;;;;;;;13.93;7.82;;;;;;;;;;5091409;28;20085;-46
2021/03/08 08:40:06;;;;;;;9.40;7.90;;;;;;;;;;5090154;28;20460;-46
2021/03/08 08:42:32;;;;;;;12.43;10.25;;;;;;;;;;5090430;28;20028;-45
2021/03/08 08:44:58;;;;;;;21.75;13.40;;;;;;;;;;5090653;28;20020;-44
2021/03/08 08:47:33;;;;;;;14.40;7.88;;;;;;;;;;5091174;28;20094;-43
2021/03/08 08:50:06;;;;;;;16.00;9.68;;;;;;;;;;5090486;28;20036;-42
2021/03/08 08:52:45;;;;;;;16.05;12.30;;;;;;;;;;5091059;28;20019;-43
2021/03/08 08:55:11;;;;;;;11.25;7.88;;;;;;;;;;5091391;28;20031;-47
2021/03/08 08:57:37;;;;;;;10.05;7.80;;;;;;;;;;5089102;28;20026;-45
2021/03/08 09:00:20;;;;;;;9.52;7.45;;;;;;;;;;5090482;28;20036;-48
2021/03/08 09:02:45;;;;;;;16.58;5.97;;;;;;;;;;5086992;28;20024;-44
2021/03/08 09:05:29;;;;;;;5.70;4.50;;;;;;;;;;5089446;28;20050;-59
2021/03/08 09:08:13;;;;;;;6.47;4.78;;;;;;;;;;5089428;28;20035;-59
2021/03/08 09:10:38;;;;;;;7.95;5.03;;;;;;;;;;5091096;28;20469;-59
2021/03/08 09:13:10;;;;;;;9.65;4.80;;;;;;;;;;5091171;28;20023;-60
2021/03/08 09:15:35;;;;;;;16.77;12.13;;;;;;;;;;5087901;28;20020;-59
2021/03/08 09:18:03;;;;;;;27.50;13.85;;;;;;;;;;5088614;28;20077;-60
2021/03/08 09:20:29;;;;;;;12.35;9.40;;;;;;;;;;5088999;28;20139;-62
2021/03/08 09:22:58;;;;;;;12.13;8.05;;;;;;;;;;5090485;28;20078;-60
2021/03/08 09:25:31;;;;;;;12.50;7.78;;;;;;;;;;5090006;28;20377;-59
2021/03/08 09:28:01;;;;;;;12.50;6.50;;;;;;;;;;5089878;28;20068;-60
2021/03/08 09:30:27;;;;;;;8.07;6.55;;;;;;;;;;5090135;28;20104;-60
2021/03/08 09:33:01;;;;;;;28.17;21.77;;;;;;;;;;5090056;28;20035;-61
2021/03/08 09:35:27;;;;;;;33.90;25.27;;;;;;;;;;5089709;28;20028;-60
2021/03/08 09:37:54;;;;;;;23.33;18.98;;;;;;;;;;5089746;28;20093;-58
2021/03/08 09:40:20;;;;;;;40.25;25.08;;;;;;;;;;5089931;28;20035;-60
2021/03/08 09:42:46;;;;;;;7.78;6.10;;;;;;;;;;5087888;28;20016;-61
2021/03/08 09:45:14;;;;;;;6.07;4.35;;;;;;;;;;5089826;28;20085;-61
2021/03/08 09:47:40;;;;;;;7.60;6.80;;;;;;;;;;5089636;28;20077;-60
2021/03/08 09:50:07;;;;;;;9.55;4.78;;;;;;;;;;5089944;28;20036;-59
2021/03/08 09:52:41;;;;;;;13.75;7.13;;;;;;;;;;5089727;28;20515;-60
2021/03/08 09:55:08;;;;;;;9.13;8.30;;;;;;;;;;5090150;28;20032;-60
2021/03/08 09:57:35;;;;;;;63.17;56.72;;;;;;;;;;5089584;28;20017;-64
2021/03/08 10:00:04;;;;;;;147.77;132.32;;;;;;;;;;5090647;28;20024;-62
2021/03/08 10:15:54;;;;;;;17.70;5.68;;;;;;;;;;5062583;28;20391;-58
2021/03/08 10:18:23;;;;;;;15.50;7.75;;;;;;;;;;5065533;28;20043;-58
2021/03/08 10:20:53;;;;;;;13.25;5.95;;;;;;;;;;5066424;28;20513;-58
2021/03/08 10:23:25;;;;;;;22.17;6.50;;;;;;;;;;5064158;28;20481;-58
2021/03/08 10:25:51;;;;;;;8.43;5.65;;;;;;;;;;5064441;28;20075;-58
2021/03/08 10:28:17;;;;;;;12.55;7.60;;;;;;;;;;5065357;28;20439;-59
2021/03/08 10:30:44;;;;;;;9.98;5.47;;;;;;;;;;5065414;28;20466;-59
2021/03/08 10:33:09;;;;;;;12.93;7.38;;;;;;;;;;5065119;28;20434;-60
2021/03/08 10:35:36;;;;;;;14.45;11.75;;;;;;;;;;5065503;28;20117;-61
2021/03/08 10:38:02;;;;;;;19.23;12.95;;;;;;;;;;5063096;28;20402;-61
2021/03/08 10:40:27;;;;;;;18.25;10.93;;;;;;;;;;5065472;28;20028;-58
2021/03/08 10:42:53;;;;;;;23.85;12.98;;;;;;;;;;5064737;28;20060;-58
2021/03/08 10:45:19;;;;;;;16.73;12.70;;;;;;;;;;5064193;28;20027;-58
2021/03/08 10:47:44;;;;;;;28.23;12.52;;;;;;;;;;5065651;28;20105;-59
2021/03/08 10:50:09;;;;;;;19.83;11.27;;;;;;;;;;5063545;28;20024;-60
2021/03/08 10:52:35;;;;;;;13.27;7.75;;;;;;;;;;5065754;28;20032;-59
2021/03/08 10:55:00;;;;;;;11.05;5.63;;;;;;;;;;5065459;28;20486;-59
2021/03/08 10:57:27;;;;;;;11.40;5.30;;;;;;;;;;5059926;28;20244;-60
2021/03/08 10:59:54;;;;;;;21.13;7.25;;;;;;;;;;5058064;28;20033;-60
2021/03/08 11:02:20;;;;;;;9.85;5.82;;;;;;;;;;5059153;28;20067;-59
2021/03/08 11:04:46;;;;;;;16.38;6.10;;;;;;;;;;5063517;28;20462;-59
2021/03/08 11:07:12;;;;;;;24.25;7.30;;;;;;;;;;5062992;28;20066;-60
2021/03/08 11:09:38;;;;;;;13.75;5.65;;;;;;;;;;5064235;28;20040;-60
2021/03/08 11:12:04;;;;;;;9.75;6.70;;;;;;;;;;5064167;28;20033;-59
2021/03/08 11:14:44;;;;;;;18.70;6.20;;;;;;;;;;5062112;28;20102;-59
2021/03/08 11:17:09;;;;;;;9.10;6.60;;;;;;;;;;5038142;28;20021;-60
2021/03/08 11:19:35;;;;;;;13.50;5.15;;;;;;;;;;5048361;28;20036;-61
2021/03/08 11:22:03;;;;;;;22.25;5.57;;;;;;;;;;5046333;28;20090;-59
2021/03/08 11:24:31;;;;;;;5.57;3.60;;;;;;;;;;5048522;28;20119;-60
2021/03/08 11:27:06;;;;;;;6.50;4.10;;;;;;;;;;5048423;28;20153;-59
2021/03/08 11:29:31;;;;;;;6.80;4.43;;;;;;;;;;5047003;28;20029;-60
2021/03/08 11:31:56;;;;;;;11.50;5.68;;;;;;;;;;5048891;28;20024;-59
2021/03/08 11:34:40;;;;;;;4.78;2.55;;;;;;;;;;5048207;28;20100;-59
2021/03/08 11:37:07;;;;;;;18.02;5.93;;;;;;;;;;5047843;28;20090;-60
2021/03/08 11:39:36;;;;;;;12.80;8.18;;;;;;;;;;5047090;28;20033;-60
2021/03/08 11:42:02;;;;;;;19.30;5.47;;;;;;;;;;5044734;28;20031;-59
2021/03/08 11:44:27;;;;;;;21.63;6.20;;;;;;;;;;5047064;28;20048;-59
2021/03/08 11:46:52;;;;;;;5.25;3.50;;;;;;;;;;5046824;28;20024;-59
2021/03/08 11:49:17;;;;;;;11.30;6.68;;;;;;;;;;5047327;28;20052;-60
2021/03/08 11:51:43;;;;;;;32.03;23.90;;;;;;;;;;5047071;28;20105;-59
2021/03/08 11:54:08;;;;;;;11.25;9.50;;;;;;;;;;5048302;28;20426;-60
2021/03/08 11:56:33;;;;;;;7.30;5.82;;;;;;;;;;5047376;28;20033;-62
2021/03/08 11:58:58;;;;;;;19.23;11.40;;;;;;;;;;5045685;28;20112;-60
2021/03/08 12:01:24;;;;;;;15.15;13.63;;;;;;;;;;5045624;28;20182;-60
2021/03/08 12:03:49;;;;;;;8.82;6.65;;;;;;;;;;5046911;28;20041;-60
2021/03/08 12:06:14;;;;;;;8.95;6.68;;;;;;;;;;5046726;28;20056;-60
2021/03/08 12:08:40;;;;;;;7.80;5.03;;;;;;;;;;5047574;28;20136;-61
2021/03/08 12:11:05;;;;;;;11.77;6.07;;;;;;;;;;5047075;28;20040;-59
2021/03/08 12:13:30;;;;;;;13.40;5.97;;;;;;;;;;5047068;28;20060;-59
2021/03/08 12:15:55;;;;;;;9.82;6.13;;;;;;;;;;5046755;28;20055;-61
2021/03/08 12:18:21;;;;;;;10.43;9.20;;;;;;;;;;5046218;28;20471;-60
2021/03/08 12:20:46;;;;;;;13.95;10.52;;;;;;;;;;5047260;28;20059;-59
2021/03/08 12:23:12;;;;;;;20.00;12.73;;;;;;;;;;5044927;28;20037;-59
2021/03/08 12:25:37;;;;;;;20.27;14.60;;;;;;;;;;5046630;28;20063;-59
2021/03/08 12:28:02;;;;;;;9.23;6.97;;;;;;;;;;5044695;28;20147;-60
2021/03/08 12:30:28;;;;;;;9.30;8.10;;;;;;;;;;5047007;28;20017;-59
2021/03/08 12:32:53;;;;;;;10.27;8.27;;;;;;;;;;5046411;28;20105;-60
2021/03/08 12:35:18;;;;;;;8.48;4.47;;;;;;;;;;5046462;28;20421;-61
2021/03/08 12:37:43;;;;;;;6.38;3.97;;;;;;;;;;5046763;28;20509;-60
2021/03/08 12:40:09;;;;;;;8.13;5.53;;;;;;;;;;5046615;28;20055;-60
2021/03/08 12:42:34;;;;;;;5.28;4.78;;;;;;;;;;5045146;28;20387;-62
2021/03/08 12:45:00;;;;;;;5.22;4.22;;;;;;;;;;5045448;28;20041;-61
2021/03/08 12:47:25;;;;;;;11.02;5.22;;;;;;;;;;5046484;28;20082;-61
2021/03/08 12:49:50;;;;;;;8.85;5.97;;;;;;;;;;5046922;28;20052;-61
2021/03/08 12:52:16;;;;;;;8.55;6.82;;;;;;;;;;5045998;28;20021;-60
2021/03/08 12:54:41;;;;;;;13.98;12.43;;;;;;;;;;5044341;28;20036;-61
2021/03/08 12:57:06;;;;;;;19.05;10.35;;;;;;;;;;5046185;28;20021;-62
2021/03/08 12:59:32;;;;;;;13.27;9.32;;;;;;;;;;5046549;28;20024;-61
2021/03/08 13:01:57;;;;;;;7.53;6.03;;;;;;;;;;5046123;28;20052;-61
2021/03/08 13:04:23;;;;;;;10.27;8.35;;;;;;;;;;5045973;28;20423;-61
2021/03/08 13:06:48;;;;;;;11.15;7.15;;;;;;;;;;5045777;28;20096;-60
2021/03/08 13:09:13;;;;;;;29.30;6.68;;;;;;;;;;5046622;28;20029;-60
2021/03/08 13:11:39;;;;;;;16.25;7.38;;;;;;;;;;5047103;28;20139;-60
2021/03/08 13:14:04;;;;;;;19.40;7.00;;;;;;;;;;5047017;28;20057;-60
2021/03/08 13:16:29;;;;;;;15.73;6.43;;;;;;;;;;5046606;28;20025;-60
2021/03/08 13:18:55;;;;;;;11.63;7.85;;;;;;;;;;5045647;28;20044;-61
2021/03/08 13:21:20;;;;;;;17.42;7.47;;;;;;;;;;5045681;28;20186;-61
2021/03/08 13:23:45;;;;;;;10.05;7.07;;;;;;;;;;5046383;28;20041;-61
2021/03/08 13:26:11;;;;;;;13.65;10.90;;;;;;;;;;5043566;28;20739;-60
2021/03/08 13:28:36;;;;;;;76.53;68.40;;;;;;;;;;5042764;28;20085;-59
2021/03/08 13:31:01;;;;;;;24.55;20.63;;;;;;;;;;5047103;28;20024;-61
2021/03/08 13:33:27;;;;;;;44.15;36.05;;;;;;;;;;5046159;28;20040;-60
2021/03/08 13:35:52;;;;;;;28.73;15.93;;;;;;;;;;5046495;28;20056;-61
2021/03/08 13:38:17;;;;;;;19.70;14.00;;;;;;;;;;5046724;28;20041;-59
2021/03/08 13:40:43;;;;;;;57.95;39.45;;;;;;;;;;5047288;28;20025;-59
2021/03/08 13:43:08;;;;;;;24.75;15.43;;;;;;;;;;5043996;28;20033;-58
2021/03/08 13:45:33;;;;;;;215.05;150.55;;;;;;;;;;5044962;28;20032;-59
2021/03/08 13:47:59;;;;;;;59.17;40.13;;;;;;;;;;5044960;28;20036;-58
2021/03/08 13:50:24;;;;;;;11.95;10.50;;;;;;;;;;5046921;28;20029;-58
2021/03/08 13:52:49;;;;;;;38.15;34.08;;;;;;;;;;5046931;28;20471;-59
2021/03/08 13:55:15;;;;;;;9.95;8.93;;;;;;;;;;5046743;28;20397;-58
2021/03/08 13:57:40;;;;;;;23.95;16.20;;;;;;;;;;5047068;28;20024;-58
2021/03/08 14:00:08;;;;;;;17.92;8.82;;;;;;;;;;5045274;28;20033;-59
2021/03/08 14:02:34;;;;;;;16.88;8.98;;;;;;;;;;5056999;28;20029;-59
2021/03/08 14:05:00;;;;;;;31.90;11.85;;;;;;;;;;5036441;28;20040;-58
2021/03/08 14:07:25;;;;;;;15.82;12.57;;;;;;;;;;5041544;28;20033;-58
2021/03/08 14:09:50;;;;;;;18.98;15.48;;;;;;;;;;5045235;28;20029;-59
2021/03/08 14:12:15;;;;;;;14.98;10.75;;;;;;;;;;5045026;28;20454;-57
2021/03/08 14:14:42;;;;;;;17.38;13.13;;;;;;;;;;5041232;28;20056;-58
2021/03/08 14:17:07;;;;;;;13.75;9.57;;;;;;;;;;5044435;28;20558;-58
2021/03/08 14:19:32;;;;;;;14.75;9.05;;;;;;;;;;5042394;28;20103;-59
2021/03/08 14:21:58;;;;;;;17.25;9.82;;;;;;;;;;5046368;28;20728;-58
2021/03/08 14:24:24;;;;;;;16.38;9.85;;;;;;;;;;5046464;28;20072;-58
2021/03/08 14:26:49;;;;;;;13.10;11.77;;;;;;;;;;5046692;28;20063;-58
2021/03/08 14:29:14;;;;;;;17.42;12.75;;;;;;;;;;5046559;28;20033;-59
2021/03/08 14:31:40;;;;;;;29.73;18.80;;;;;;;;;;5046558;28;20075;-59
2021/03/08 14:34:05;;;;;;;16.70;14.00;;;;;;;;;;5046727;28;20121;-59
2021/03/08 14:36:30;;;;;;;13.45;9.35;;;;;;;;;;5047089;28;20108;-58
2021/03/08 14:38:56;;;;;;;12.73;8.48;;;;;;;;;;5044515;28;20037;-59
2021/03/08 14:41:21;;;;;;;16.65;10.00;;;;;;;;;;5046424;28;20025;-59
2021/03/08 14:43:47;;;;;;;51.60;46.22;;;;;;;;;;5046050;28;20067;-60